createdAt,value
2023-05-25T00:00:19.396Z,101951.94
2023-05-25T00:02:49.432Z,101950.16
2023-05-25T00:05:20.388Z,101957.19
2023-05-25T00:07:52.483Z,101971.59
2023-05-25T00:10:22.008Z,101968.81
2023-05-25T00:12:51.508Z,101973.16
2023-05-25T00:15:21.573Z,101975.06
2023-05-25T00:17:54.778Z,101978.97
2023-05-25T00:20:24.445Z,101980.19
2023-05-25T00:22:56.629Z,101984.34
2023-05-25T00:25:26.177Z,101982.44
2023-05-25T00:27:55.759Z,101989.47
2023-05-25T00:30:25.398Z,101987.03
2023-05-25T00:32:55.832Z,101986.78
2023-05-25T00:35:25.362Z,101990.25
2023-05-25T00:37:57.470Z,102000.31
2023-05-25T00:40:27.132Z,102000.97
2023-05-25T00:42:56.666Z,102009.13
2023-05-25T00:45:26.244Z,102010.03
2023-05-25T00:47:56.145Z,102020.06
2023-05-25T00:50:36.937Z,102015.47
2023-05-25T00:53:09.813Z,102022.63
2023-05-25T00:55:42.417Z,102019.63
2023-05-25T00:58:12.954Z,102021.84
2023-05-25T01:00:44.308Z,102023.41
2023-05-25T01:03:18.097Z,102034.16
2023-05-25T01:05:51.442Z,102031.66
2023-05-25T01:08:25.804Z,102035.03
2023-05-25T01:10:56.249Z,102038.25
2023-05-25T01:13:25.996Z,102037.91
2023-05-25T01:15:55.940Z,102037.13
2023-05-25T01:18:25.561Z,102044.63
2023-05-25T01:21:02.154Z,102041.72
2023-05-25T01:23:35.889Z,102040.81
2023-05-25T01:26:09.014Z,102058.91
2023-05-25T01:28:41.724Z,102048.19
2023-05-25T01:31:11.867Z,102064.06
2023-05-25T01:33:41.567Z,102060.50
2023-05-25T01:36:13.850Z,102065.19
2023-05-25T01:38:43.460Z,102064.50
2023-05-25T01:41:13.043Z,102069.88
2023-05-25T01:43:42.772Z,102060.50
2023-05-25T01:46:17.627Z,102069.66
2023-05-25T01:48:56.121Z,102070.31
2023-05-25T01:51:35.177Z,102068.34
2023-05-25T01:54:10.787Z,102071.28
2023-05-25T01:56:42.862Z,102068.72
2023-05-25T01:59:12.884Z,102068.81
2023-05-25T02:01:44.100Z,102065.25
2023-05-25T02:04:14.514Z,102066.16
2023-05-25T02:06:46.683Z,102061.56
2023-05-25T02:09:16.466Z,102068.81
2023-05-25T02:11:46.256Z,102072.94
2023-05-25T02:14:16.146Z,102076.06
2023-05-25T02:16:47.464Z,102074.94
2023-05-25T02:19:17.013Z,102075.38
2023-05-25T02:21:49.213Z,102074.25
2023-05-25T02:24:18.910Z,102077.09
2023-05-25T02:26:48.508Z,102076.06
2023-05-25T02:29:18.089Z,102090.09
2023-05-25T02:31:47.684Z,102090.47
2023-05-25T02:34:17.335Z,102092.56
2023-05-25T02:36:49.426Z,102093.47
2023-05-25T02:39:19.169Z,102087.44
2023-05-25T02:41:48.778Z,102088.34
2023-05-25T02:44:18.345Z,102089.91
2023-05-25T02:46:47.939Z,102085.25
2023-05-25T02:49:17.567Z,102076.41
2023-05-25T02:51:49.721Z,102081.78
2023-05-25T02:54:19.985Z,102082.97
2023-05-25T02:56:49.522Z,102088.94
2023-05-25T02:59:19.097Z,102110.31
2023-05-25T03:01:48.609Z,102117.09
2023-05-25T03:04:18.217Z,102132.47
2023-05-25T03:06:50.566Z,102137.91
2023-05-25T03:09:20.198Z,102139.69
2023-05-25T03:11:49.845Z,102136.91
2023-05-25T03:14:19.398Z,102135.34
2023-05-25T03:16:49.912Z,102139.56
2023-05-25T03:19:20.702Z,102144.50
2023-05-25T03:21:52.846Z,102148.50
2023-05-25T03:24:22.373Z,102152.00
2023-05-25T03:26:51.886Z,102155.44
2023-05-25T03:29:21.850Z,102154.13
2023-05-25T03:31:51.441Z,102162.94
2023-05-25T03:34:21.017Z,102158.63
2023-05-25T03:36:54.521Z,102156.81
2023-05-25T03:39:24.909Z,102159.06
2023-05-25T03:41:55.542Z,102149.25
2023-05-25T03:44:25.146Z,102150.69
2023-05-25T03:46:54.650Z,102162.63
2023-05-25T03:49:24.184Z,102154.59
2023-05-25T03:51:56.369Z,102158.41
2023-05-25T03:54:26.053Z,102170.47
2023-05-25T03:56:56.921Z,102166.63
2023-05-25T03:59:26.418Z,102162.41
2023-05-25T04:01:55.936Z,102171.56
2023-05-25T04:04:26.068Z,102174.22
2023-05-25T04:06:58.244Z,102171.56
2023-05-25T04:09:27.818Z,102169.22
2023-05-25T04:14:58.471Z,102109.00
2023-05-25T04:17:26.739Z,102118.06
2023-05-25T04:19:55.142Z,102120.19
2023-05-25T04:22:23.440Z,102127.78
2023-05-25T04:24:51.679Z,102128.03
2023-05-25T04:27:20.356Z,102126.91
2023-05-25T04:29:50.202Z,102127.69
2023-05-25T04:32:22.530Z,102129.81
2023-05-25T04:34:52.452Z,102139.69
2023-05-25T04:37:21.958Z,102135.53
2023-05-25T04:39:51.590Z,102145.28
2023-05-25T04:42:24.165Z,102154.78
2023-05-25T04:44:55.814Z,102162.16
2023-05-25T04:47:28.100Z,102175.22
2023-05-25T04:49:57.717Z,102179.47
2023-05-25T04:52:27.328Z,102179.94
2023-05-25T04:54:56.833Z,102190.09
2023-05-25T04:57:28.282Z,102193.72
2023-05-25T04:59:57.831Z,102193.00
2023-05-25T05:02:30.032Z,102200.31
2023-05-25T05:04:59.668Z,102212.81
2023-05-25T05:07:29.233Z,102211.25
2023-05-25T05:09:59.014Z,102213.94
2023-05-25T05:12:28.525Z,102217.34
2023-05-25T05:14:58.782Z,102227.19
2023-05-25T05:17:31.293Z,102229.66
2023-05-25T05:20:01.035Z,102231.88
2023-05-25T05:22:30.951Z,102241.72
2023-05-25T05:25:00.577Z,102239.41
2023-05-25T05:27:30.141Z,102246.84
2023-05-25T05:29:59.675Z,102247.03
2023-05-25T05:32:32.130Z,102260.25
2023-05-25T05:35:01.756Z,102258.34
2023-05-25T05:37:31.362Z,102269.97
2023-05-25T05:40:00.904Z,102274.88
2023-05-25T05:42:30.565Z,102291.16
2023-05-25T05:45:00.136Z,102286.81
2023-05-25T05:47:32.311Z,102299.00
2023-05-25T05:50:01.869Z,102302.81
2023-05-25T05:52:31.481Z,102304.69
2023-05-25T05:55:01.108Z,102310.88
2023-05-25T05:57:30.970Z,102323.06
2023-05-25T06:00:00.628Z,102321.50
2023-05-25T06:02:33.541Z,102322.09
2023-05-25T06:05:03.135Z,102326.09
2023-05-25T06:07:35.261Z,102326.75
2023-05-25T06:10:05.130Z,102325.94
2023-05-25T06:12:34.925Z,102328.81
2023-05-25T06:15:04.921Z,102319.97
2023-05-25T06:17:37.309Z,102325.34
2023-05-25T06:20:07.858Z,102329.13
2023-05-25T06:22:37.491Z,102332.44
2023-05-25T06:25:10.550Z,102327.69
2023-05-25T06:27:40.262Z,102332.66
2023-05-25T06:30:11.489Z,102344.03
2023-05-25T06:32:43.812Z,102357.41
2023-05-25T06:35:19.778Z,102369.81
2023-05-25T06:37:51.045Z,102369.50
2023-05-25T06:40:20.720Z,102378.91
2023-05-25T06:42:50.371Z,102384.03
2023-05-25T06:45:19.962Z,102379.09
2023-05-25T06:47:52.133Z,102384.66
2023-05-25T06:50:22.060Z,102391.69
2023-05-25T06:52:51.735Z,102397.66
2023-05-25T06:55:21.304Z,102413.09
2023-05-25T06:57:50.890Z,102411.94
2023-05-25T07:00:21.638Z,102426.81
2023-05-25T07:02:54.030Z,102417.13
2023-05-25T07:05:27.034Z,102420.63
2023-05-25T07:07:56.688Z,102421.16
2023-05-25T07:10:26.916Z,102417.56
2023-05-25T07:12:56.588Z,102421.25
2023-05-25T07:15:26.189Z,102418.00
2023-05-25T07:17:59.043Z,102420.50
2023-05-25T07:20:30.394Z,102424.28
2023-05-25T07:23:00.168Z,102443.97
2023-05-25T07:25:30.313Z,102450.41
2023-05-25T07:28:00.119Z,102462.66
2023-05-25T07:30:29.714Z,102456.41
2023-05-25T07:33:02.255Z,102453.38
2023-05-25T07:35:31.865Z,102459.25
2023-05-25T07:38:01.592Z,102467.91
2023-05-25T07:40:31.475Z,102476.16
2023-05-25T07:43:01.286Z,102478.66
2023-05-25T07:45:30.901Z,102476.50
2023-05-25T07:48:03.360Z,102494.06
2023-05-25T07:50:33.033Z,102487.22
2023-05-25T07:53:02.599Z,102485.94
2023-05-25T07:55:32.519Z,102488.09
2023-05-25T07:58:02.106Z,102497.56
2023-05-25T08:00:31.812Z,102499.31
2023-05-25T08:03:05.117Z,102515.91
2023-05-25T08:05:34.880Z,102519.59
2023-05-25T08:08:04.428Z,102522.44
2023-05-25T08:10:34.105Z,102512.19
2023-05-25T08:13:03.707Z,102535.94
2023-05-25T08:15:33.341Z,102542.59
2023-05-25T08:18:06.762Z,102553.09
2023-05-25T08:20:36.788Z,102560.69
2023-05-25T08:23:06.485Z,102561.38
2023-05-25T08:25:36.062Z,102566.75
2023-05-25T08:28:05.678Z,102552.22
2023-05-25T08:30:35.467Z,102565.38
2023-05-25T08:33:08.165Z,102569.88
2023-05-25T08:35:39.475Z,102566.75
2023-05-25T08:38:09.103Z,102560.44
2023-05-25T08:40:38.717Z,102559.13
2023-05-25T08:43:08.593Z,102566.53
2023-05-25T08:45:41.753Z,102578.50
2023-05-25T08:48:35.724Z,102579.88
2023-05-25T08:51:11.020Z,102573.25
2023-05-25T08:53:42.576Z,102577.16
2023-05-25T08:56:15.526Z,102574.28
2023-05-25T08:58:50.835Z,102590.03
2023-05-25T09:01:23.263Z,102592.63
2023-05-25T09:03:55.797Z,102589.34
2023-05-25T09:06:27.119Z,102599.16
2023-05-25T09:08:57.585Z,102590.19
2023-05-25T09:11:37.430Z,102600.78
2023-05-25T09:14:10.712Z,102592.50
2023-05-25T09:16:41.227Z,102612.09
2023-05-25T09:19:13.832Z,102613.63
2023-05-25T09:21:44.259Z,102610.00
2023-05-25T09:24:14.254Z,102607.53
2023-05-25T09:26:46.455Z,102618.38
2023-05-25T09:29:17.822Z,102618.19
2023-05-25T09:31:47.421Z,102622.75
2023-05-25T09:34:19.616Z,102622.41
2023-05-25T09:36:49.482Z,102618.81
2023-05-25T09:39:19.899Z,102618.34
2023-05-25T09:41:49.547Z,102614.78
2023-05-25T09:44:19.101Z,102610.66
2023-05-25T09:46:48.991Z,102613.19
2023-05-25T09:49:21.253Z,102616.91
2023-05-25T09:51:51.072Z,102622.78
2023-05-25T09:54:22.887Z,102629.00
2023-05-25T09:56:52.659Z,102633.75
2023-05-25T09:59:22.252Z,102631.22
2023-05-25T10:01:54.013Z,102636.81
2023-05-25T10:04:26.338Z,102634.69
2023-05-25T10:06:56.947Z,102637.47
2023-05-25T10:09:28.365Z,102636.56
2023-05-25T10:11:59.993Z,102634.88
2023-05-25T10:14:31.244Z,102635.38
2023-05-25T10:17:02.250Z,102638.94
2023-05-25T10:19:37.984Z,102641.19
2023-05-25T10:22:13.675Z,102636.44
2023-05-25T10:24:46.787Z,102649.53
2023-05-25T10:27:26.857Z,102657.38
2023-05-25T10:29:59.111Z,102667.50
2023-05-25T10:32:29.296Z,102671.66
2023-05-25T10:35:02.237Z,102685.84
2023-05-25T10:37:32.498Z,102688.75
2023-05-25T10:40:03.388Z,102701.38
2023-05-25T10:42:34.611Z,102712.63
2023-05-25T10:45:04.369Z,102716.91
2023-05-25T10:47:34.976Z,102734.00
2023-05-25T10:50:07.818Z,102742.13
2023-05-25T10:52:37.506Z,102743.28
2023-05-25T10:55:07.761Z,102740.59
2023-05-25T10:57:39.880Z,102750.25
2023-05-25T11:00:11.559Z,102757.06
2023-05-25T11:02:55.703Z,102755.06
2023-05-25T11:05:39.875Z,102756.13
2023-05-25T11:08:12.533Z,102771.28
2023-05-25T11:10:55.809Z,102791.09
2023-05-25T11:13:41.453Z,102801.75
2023-05-25T11:16:24.941Z,102832.31
2023-05-25T11:18:58.789Z,102853.28
2023-05-25T11:21:49.463Z,102864.94
2023-05-25T11:24:20.930Z,102868.38
2023-05-25T11:26:58.622Z,102857.53
2023-05-25T11:29:29.396Z,102847.38
2023-05-25T11:32:00.820Z,102806.84
2023-05-25T11:34:30.621Z,102697.63
2023-05-25T11:37:04.657Z,102470.03
2023-05-25T11:39:34.374Z,102343.94
2023-05-25T11:42:08.234Z,102154.94
2023-05-25T11:44:39.321Z,102047.88
2023-05-25T11:47:13.505Z,101968.69
2023-05-25T11:49:46.348Z,101952.72
2023-05-25T11:52:19.564Z,101999.03
2023-05-25T11:54:49.779Z,101930.94
2023-05-25T11:57:21.605Z,101913.75
2023-05-25T11:59:52.693Z,101913.31
2023-05-25T12:02:22.935Z,101915.38
2023-05-25T12:04:57.225Z,101895.00
2023-05-25T12:07:30.785Z,101906.00
2023-05-25T12:10:12.412Z,101890.88
2023-05-25T12:12:45.077Z,101891.09
2023-05-25T12:15:19.005Z,101873.19
2023-05-25T12:17:50.616Z,101872.34
2023-05-25T12:20:21.280Z,101868.09
2023-05-25T12:22:53.807Z,101873.97
2023-05-25T12:25:24.642Z,101867.41
2023-05-25T12:28:15.456Z,101883.81
2023-05-25T12:30:45.948Z,101901.13
2023-05-25T12:33:16.431Z,101883.53
2023-05-25T12:35:49.901Z,101890.91
2023-05-25T12:38:23.819Z,101872.44
2023-05-25T12:41:08.158Z,101883.88
2023-05-25T12:43:43.826Z,101893.31
2023-05-25T12:46:13.511Z,101908.44
2023-05-25T12:48:43.171Z,101944.19
2023-05-25T12:51:12.803Z,101917.16
2023-05-25T12:53:55.080Z,101910.78
2023-05-25T12:56:24.648Z,101938.50
2023-05-25T12:58:54.211Z,101917.22
2023-05-25T13:01:24.189Z,101897.28
2023-05-25T13:03:54.034Z,101907.97
2023-05-25T13:06:23.628Z,101938.44
2023-05-25T13:08:55.989Z,101937.94
2023-05-25T13:11:26.086Z,101925.25
2023-05-25T13:13:55.699Z,101896.00
2023-05-25T13:16:25.824Z,101893.50
2023-05-25T13:18:55.641Z,101922.34
2023-05-25T13:21:25.206Z,101896.50
2023-05-25T13:23:57.747Z,101919.72
2023-05-25T13:26:27.601Z,101915.13
2023-05-25T13:28:57.132Z,101935.06
2023-05-25T13:31:26.717Z,101928.41
2023-05-25T13:33:56.561Z,101931.88
2023-05-25T13:36:26.106Z,101890.31
2023-05-25T13:38:59.321Z,101931.59
2023-05-25T13:41:28.858Z,101949.00
2023-05-25T13:43:58.415Z,101938.97
2023-05-25T13:46:34.714Z,101954.31
2023-05-25T13:49:05.145Z,101942.97
2023-05-25T13:51:35.878Z,101966.03
2023-05-25T13:54:08.298Z,101970.78
2023-05-25T13:56:37.857Z,101982.28
2023-05-25T13:59:07.447Z,101973.09
2023-05-25T14:01:37.127Z,101949.25
2023-05-25T14:04:06.807Z,101940.34
2023-05-25T14:06:36.842Z,101955.69
2023-05-25T14:09:09.973Z,101964.72
2023-05-25T14:11:39.990Z,101989.53
2023-05-25T14:14:19.442Z,101952.22
2023-05-25T14:16:56.879Z,101996.03
2023-05-25T14:19:26.434Z,101990.06
2023-05-25T14:22:11.900Z,101975.78
2023-05-25T14:24:45.808Z,101954.25
2023-05-25T14:27:16.231Z,101940.94
2023-05-25T14:29:45.798Z,101934.97
2023-05-25T14:32:15.831Z,101943.06
2023-05-25T14:34:45.423Z,101945.97
2023-05-25T14:37:15.202Z,101960.63
2023-05-25T14:39:47.406Z,101935.94
2023-05-25T14:42:17.164Z,101901.38
2023-05-25T14:44:46.742Z,101878.09
2023-05-25T14:47:16.780Z,101903.34
2023-05-25T14:49:46.429Z,101873.28
2023-05-25T14:52:15.948Z,101821.09
2023-05-25T14:54:48.373Z,101849.09
2023-05-25T14:57:18.495Z,101916.25
2023-05-25T14:59:48.040Z,101868.59
2023-05-25T15:02:17.720Z,101831.44
2023-05-25T15:04:47.797Z,101825.25
2023-05-25T15:07:17.423Z,101818.34
2023-05-25T15:09:49.603Z,101773.72
2023-05-25T15:12:19.291Z,101719.50
2023-05-25T15:14:48.829Z,101687.75
2023-05-25T15:17:18.412Z,101679.63
2023-05-25T15:19:47.982Z,101655.97
2023-05-25T15:22:21.614Z,101643.75
2023-05-25T15:24:53.783Z,101733.81
2023-05-25T15:27:23.524Z,101694.41
2023-05-25T15:29:53.202Z,101668.09
2023-05-25T15:32:22.734Z,101616.81
2023-05-25T15:34:52.232Z,101611.44
2023-05-25T15:37:21.781Z,101628.16
2023-05-25T15:39:54.023Z,101628.56
2023-05-25T15:42:24.236Z,101601.41
2023-05-25T15:44:53.750Z,101619.13
2023-05-25T15:47:23.286Z,101626.66
2023-05-25T15:49:52.902Z,101629.78
2023-05-25T15:52:22.455Z,101597.03
2023-05-25T15:54:54.629Z,101600.03
2023-05-25T15:57:24.398Z,101601.16
2023-05-25T15:59:54.360Z,101605.69
2023-05-25T16:02:23.981Z,101606.16
2023-05-25T16:04:53.497Z,101613.97
2023-05-25T16:07:23.000Z,101619.16
2023-05-25T16:09:55.151Z,101630.53
2023-05-25T16:12:26.329Z,101624.47
2023-05-25T16:14:56.045Z,101637.53
2023-05-25T16:17:25.615Z,101617.56
2023-05-25T16:19:55.192Z,101629.06
2023-05-25T16:22:24.809Z,101636.78
2023-05-25T16:24:57.249Z,101651.31
2023-05-25T16:27:26.971Z,101681.13
2023-05-25T16:29:56.679Z,101773.09
2023-05-25T16:32:27.405Z,101817.59
2023-05-25T16:34:56.926Z,101847.34
2023-05-25T16:37:26.553Z,101896.81
2023-05-25T16:39:58.681Z,101897.91
2023-05-25T16:42:28.234Z,101888.00
2023-05-25T16:44:57.836Z,101902.66
2023-05-25T16:47:27.589Z,101945.03
2023-05-25T16:49:57.106Z,101970.75
2023-05-25T16:52:26.727Z,101961.44
2023-05-25T16:54:59.368Z,101948.44
2023-05-25T16:57:28.935Z,101881.06
2023-05-25T16:59:58.453Z,101844.50
2023-05-25T17:02:28.106Z,101835.22
2023-05-25T17:04:57.821Z,101906.06
2023-05-25T17:07:27.348Z,101953.13
2023-05-25T17:09:59.502Z,101990.06
2023-05-25T17:12:29.219Z,101932.38
2023-05-25T17:14:59.056Z,101819.09
2023-05-25T17:17:29.088Z,101729.59
2023-05-25T17:19:59.014Z,101709.56
2023-05-25T17:22:28.626Z,101714.47
2023-05-25T17:25:01.096Z,101689.84
2023-05-25T17:27:31.230Z,101661.28
2023-05-25T17:30:00.752Z,101666.03
2023-05-25T17:32:30.300Z,101681.78
2023-05-25T17:34:59.839Z,101707.50
2023-05-25T17:37:29.595Z,101780.25
2023-05-25T17:40:01.693Z,101823.56
2023-05-25T17:42:31.267Z,101822.75
2023-05-25T17:45:00.847Z,101847.72
2023-05-25T17:47:30.834Z,101891.00
2023-05-25T17:50:00.450Z,101911.16
2023-05-25T17:52:31.594Z,101930.63
2023-05-25T17:55:03.721Z,102002.94
2023-05-25T17:57:33.210Z,102105.28
2023-05-25T18:00:03.022Z,102224.50
2023-05-25T18:02:34.200Z,102224.75
2023-05-25T18:05:03.993Z,102225.88
2023-05-25T18:07:33.534Z,102298.06
2023-05-25T18:10:05.772Z,102369.38
2023-05-25T18:12:35.449Z,102434.25
2023-05-25T18:15:05.017Z,102473.47
2023-05-25T18:17:34.558Z,102570.19
2023-05-25T18:20:04.381Z,102653.28
2023-05-25T18:22:33.907Z,102689.72
2023-05-25T18:25:06.334Z,102727.34
2023-05-25T18:27:36.166Z,102765.56
2023-05-25T18:30:05.936Z,102798.22
2023-05-25T18:32:35.560Z,102811.56
2023-05-25T18:35:05.251Z,102815.63
2023-05-25T18:37:35.974Z,102804.69
2023-05-25T18:40:11.858Z,102767.09
2023-05-25T18:42:41.528Z,102710.38
2023-05-25T18:45:14.669Z,102634.06
2023-05-25T18:47:44.391Z,102607.72
2023-05-25T18:50:14.444Z,102584.94
2023-05-25T18:52:44.173Z,102570.56
2023-05-25T18:55:16.325Z,102555.78
2023-05-25T18:57:45.917Z,102557.94
2023-05-25T19:00:16.972Z,102548.13
2023-05-25T19:02:46.651Z,102547.44
2023-05-25T19:05:16.679Z,102545.34
2023-05-25T19:07:58.303Z,102539.63
2023-05-25T19:10:31.748Z,102541.31
2023-05-25T19:13:01.408Z,102554.66
2023-05-25T19:15:31.006Z,102552.66
2023-05-25T19:18:03.583Z,102554.91
2023-05-25T19:20:35.715Z,102555.16
2023-05-25T19:23:05.634Z,102560.59
2023-05-25T19:25:37.779Z,102565.38
2023-05-25T19:28:07.496Z,102568.91
2023-05-25T19:30:39.443Z,102567.34
2023-05-25T19:33:09.348Z,102577.81
2023-05-25T19:35:39.154Z,102575.75
2023-05-25T19:38:08.921Z,102576.88
2023-05-25T19:40:41.151Z,102587.41
2023-05-25T19:43:10.664Z,102596.31
2023-05-25T19:45:40.272Z,102592.19
2023-05-25T19:48:09.948Z,102593.88
2023-05-25T19:50:39.471Z,102593.31
2023-05-25T19:53:09.632Z,102600.50
2023-05-25T19:55:41.897Z,102600.94
2023-05-25T19:58:11.502Z,102606.53
2023-05-25T20:00:41.034Z,102597.75
2023-05-25T20:03:10.779Z,102607.13
2023-05-25T20:05:41.030Z,102607.63
2023-05-25T20:08:10.971Z,102600.88
2023-05-25T20:10:46.144Z,102601.03
2023-05-25T20:13:15.957Z,102591.38
2023-05-25T20:15:46.081Z,102585.81
2023-05-25T20:18:15.875Z,102589.59
2023-05-25T20:20:45.656Z,102602.91
2023-05-25T20:23:15.304Z,102601.47
2023-05-25T20:25:47.610Z,102593.94
2023-05-25T20:28:17.228Z,102584.00
2023-05-25T20:30:46.779Z,102585.78
2023-05-25T20:33:17.829Z,102596.31
2023-05-25T20:35:47.596Z,102591.13
2023-05-25T20:38:17.328Z,102599.25
2023-05-25T20:40:49.452Z,102601.31
2023-05-25T20:43:19.057Z,102603.22
2023-05-25T20:45:48.904Z,102599.25
2023-05-25T20:48:18.649Z,102602.72
2023-05-25T20:50:48.209Z,102604.63
2023-05-25T20:53:19.500Z,102602.47
2023-05-25T20:55:51.643Z,102599.03
2023-05-25T20:58:21.401Z,102598.06
2023-05-25T21:00:51.314Z,102595.03
2023-05-25T21:03:21.346Z,102597.31
2023-05-25T21:05:51.082Z,102590.84
2023-05-25T21:08:20.798Z,102595.16
2023-05-25T21:10:52.937Z,102599.66
2023-05-25T21:13:22.562Z,102597.69
2023-05-25T21:15:52.148Z,102593.44
2023-05-25T21:18:21.717Z,102594.91
2023-05-25T21:20:51.690Z,102583.78
2023-05-25T21:23:21.349Z,102587.47
2023-05-25T21:25:53.623Z,102572.47
2023-05-25T21:28:23.435Z,102567.88
2023-05-25T21:30:53.278Z,102565.50
2023-05-25T21:33:22.865Z,102557.88
2023-05-25T21:35:52.401Z,102558.44
2023-05-25T21:38:21.896Z,102555.00
2023-05-25T21:40:54.323Z,102560.69
2023-05-25T21:43:23.875Z,102561.16
2023-05-25T21:45:53.489Z,102554.88
2023-05-25T21:48:23.068Z,102561.81
2023-05-25T21:50:53.717Z,102553.06
2023-05-25T21:53:23.866Z,102563.16
2023-05-25T21:55:55.985Z,102568.09
2023-05-25T21:58:25.774Z,102554.31
2023-05-25T22:00:55.623Z,102560.59
2023-05-25T22:03:25.188Z,102564.63
2023-05-25T22:05:54.757Z,102566.53
2023-05-25T22:08:24.859Z,102561.13
2023-05-25T22:10:56.993Z,102563.16
2023-05-25T22:13:26.824Z,102560.44
2023-05-25T22:15:56.440Z,102556.63
2023-05-25T22:18:26.019Z,102561.06
2023-05-25T22:20:55.649Z,102554.13
2023-05-25T22:23:25.307Z,102544.72
2023-05-25T22:25:57.508Z,102547.66
2023-05-25T22:28:27.011Z,102548.09
2023-05-25T22:30:56.589Z,102555.16
2023-05-25T22:33:26.473Z,102559.91
2023-05-25T22:35:56.034Z,102548.16
2023-05-25T22:38:25.608Z,102552.03
2023-05-25T22:40:57.770Z,102541.97
2023-05-25T22:43:27.357Z,102540.28
2023-05-25T22:45:58.200Z,102545.41
2023-05-25T22:48:28.531Z,102544.75
2023-05-25T22:50:58.100Z,102541.69
2023-05-25T22:53:27.659Z,102535.97
2023-05-25T22:55:59.867Z,102516.56
2023-05-25T22:58:29.439Z,102507.59
2023-05-25T23:00:59.129Z,102512.53
2023-05-25T23:03:28.851Z,102516.34
2023-05-25T23:05:58.447Z,102516.34
2023-05-25T23:08:27.978Z,102514.56
2023-05-25T23:11:00.191Z,102505.84
2023-05-25T23:13:29.716Z,102506.66
2023-05-25T23:15:59.738Z,102506.47
2023-05-25T23:18:29.323Z,102501.03
2023-05-25T23:20:58.874Z,102496.84
2023-05-25T23:23:28.472Z,102498.75
2023-05-25T23:26:00.567Z,102491.88
2023-05-25T23:28:30.125Z,102484.66
2023-05-25T23:30:59.718Z,102477.91
2023-05-25T23:33:29.407Z,102466.44
2023-05-25T23:35:59.301Z,102461.78
2023-05-25T23:38:28.838Z,102463.69
2023-05-25T23:41:01.032Z,102474.75
2023-05-25T23:43:30.586Z,102477.28
2023-05-25T23:46:00.238Z,102472.28
2023-05-25T23:48:29.790Z,102482.75
2023-05-25T23:50:59.294Z,102472.97
2023-05-25T23:53:28.857Z,102481.88
2023-05-25T23:56:00.977Z,102479.19
2023-05-25T23:58:30.537Z,102471.75
